createdAt,value
2023-04-27T00:01:12.521Z,4.10
2023-04-27T00:03:40.858Z,3.80
2023-04-27T00:06:09.244Z,3.70
2023-04-27T00:08:36.237Z,4.00
2023-04-27T00:11:03.134Z,3.80
2023-04-27T00:13:29.957Z,4.20
2023-04-27T00:15:56.876Z,3.80
2023-04-27T00:18:23.554Z,3.50
2023-04-27T00:20:50.449Z,3.50
2023-04-27T00:23:17.369Z,4.00
2023-04-27T00:25:44.160Z,3.70
2023-04-27T00:28:10.890Z,3.70
2023-04-27T00:30:37.738Z,3.50
2023-04-27T00:33:05.394Z,3.50
2023-04-27T00:35:33.072Z,3.60
2023-04-27T00:38:00.024Z,3.60
2023-04-27T00:40:26.716Z,3.80
2023-04-27T00:42:53.377Z,4.20
2023-04-27T00:45:20.194Z,4.00
2023-04-27T00:47:47.007Z,4.20
2023-04-27T00:50:14.075Z,3.40
2023-04-27T00:52:41.346Z,3.80
2023-04-27T00:55:09.122Z,3.70
2023-04-27T00:57:35.831Z,3.50
2023-04-27T01:00:06.245Z,3.40
2023-04-27T01:02:34.405Z,3.20
2023-04-27T01:05:02.483Z,3.10
2023-04-27T01:07:29.376Z,3.70
2023-04-27T01:09:56.113Z,3.30
2023-04-27T01:12:22.793Z,3.60
2023-04-27T01:14:49.559Z,3.60
2023-04-27T01:17:17.729Z,3.30
2023-04-27T01:19:44.572Z,2.90
2023-04-27T01:22:11.504Z,3.20
2023-04-27T01:24:38.243Z,3.20
2023-04-27T01:27:05.106Z,3.20
2023-04-27T01:29:32.164Z,3.00
2023-04-27T01:31:59.028Z,3.00
2023-04-27T01:34:25.766Z,3.00
2023-04-27T01:36:52.496Z,3.40
2023-04-27T01:39:19.213Z,3.10
2023-04-27T01:41:45.914Z,2.80
2023-04-27T01:44:12.673Z,2.90
2023-04-27T01:46:39.453Z,2.80
2023-04-27T01:49:06.699Z,3.00
2023-04-27T01:51:33.440Z,3.20
2023-04-27T01:54:00.202Z,2.90
2023-04-27T01:56:26.894Z,2.50
2023-04-27T01:58:53.657Z,2.80
2023-04-27T02:01:20.477Z,2.40
2023-04-27T02:03:47.360Z,2.50
2023-04-27T02:06:14.424Z,2.80
2023-04-27T02:08:41.130Z,2.50
2023-04-27T02:11:08.317Z,2.90
2023-04-27T02:13:35.290Z,2.80
2023-04-27T02:16:04.254Z,2.70
2023-04-27T02:18:35.756Z,2.50
2023-04-27T02:21:08.790Z,2.60
2023-04-27T02:23:36.298Z,2.50
2023-04-27T02:26:04.544Z,2.60
2023-04-27T02:28:31.790Z,2.40
2023-04-27T02:30:58.970Z,2.60
2023-04-27T02:33:25.769Z,2.80
2023-04-27T02:35:52.626Z,2.50
2023-04-27T02:38:19.449Z,2.70
2023-04-27T02:40:46.126Z,2.70
2023-04-27T02:43:12.798Z,2.50
2023-04-27T02:45:39.516Z,2.70
2023-04-27T02:48:06.497Z,2.80
2023-04-27T02:50:33.179Z,2.60
2023-04-27T02:52:59.914Z,2.60
2023-04-27T02:55:27.041Z,2.50
2023-04-27T02:57:53.786Z,2.80
2023-04-27T03:00:20.623Z,2.70
2023-04-27T03:02:47.405Z,2.80
2023-04-27T03:05:14.136Z,2.40
2023-04-27T03:07:41.485Z,2.70
2023-04-27T03:10:08.759Z,2.90
2023-04-27T03:12:35.500Z,2.60
2023-04-27T03:15:02.693Z,2.70
2023-04-27T03:17:29.377Z,2.80
2023-04-27T03:19:56.284Z,2.70
2023-04-27T03:22:23.226Z,2.70
2023-04-27T03:24:50.171Z,2.50
2023-04-27T03:27:16.955Z,2.30
2023-04-27T03:29:43.600Z,2.70
2023-04-27T03:32:10.468Z,2.80
2023-04-27T03:34:37.353Z,2.90
2023-04-27T03:37:04.138Z,2.80
2023-04-27T03:39:30.827Z,2.70
2023-04-27T03:41:57.497Z,2.80
2023-04-27T03:44:24.250Z,2.40
2023-04-27T03:46:50.908Z,2.40
2023-04-27T03:49:17.646Z,2.50
2023-04-27T03:51:44.971Z,2.60
2023-04-27T03:54:11.802Z,2.70
2023-04-27T03:56:38.576Z,3.20
2023-04-27T03:59:05.308Z,3.10
2023-04-27T04:01:33.428Z,3.10
2023-04-27T04:04:00.340Z,3.00
2023-04-27T04:06:27.819Z,3.00
2023-04-27T04:08:55.402Z,3.10
2023-04-27T04:11:22.149Z,3.30
2023-04-27T04:13:49.255Z,3.20
2023-04-27T04:16:16.041Z,3.50
2023-04-27T04:18:42.905Z,3.10
2023-04-27T04:21:10.726Z,3.10
2023-04-27T04:23:40.471Z,3.80
2023-04-27T04:26:08.242Z,2.90
2023-04-27T04:28:35.258Z,3.10
2023-04-27T04:31:02.816Z,3.30
2023-04-27T04:33:30.642Z,3.30
2023-04-27T04:35:58.254Z,3.80
2023-04-27T04:38:24.984Z,3.50
2023-04-27T04:40:52.379Z,3.40
2023-04-27T04:43:19.167Z,3.20
2023-04-27T04:45:46.331Z,3.90
2023-04-27T04:48:17.094Z,3.00
2023-04-27T04:50:43.866Z,3.50
2023-04-27T04:53:10.541Z,3.50
2023-04-27T04:55:37.231Z,3.00
2023-04-27T04:58:03.972Z,3.30
2023-04-27T05:00:30.749Z,3.50
2023-04-27T05:02:58.090Z,3.50
2023-04-27T05:05:25.519Z,3.10
2023-04-27T05:07:52.155Z,3.40
2023-04-27T05:10:18.790Z,3.50
2023-04-27T05:12:45.623Z,4.20
2023-04-27T05:15:12.352Z,3.40
2023-04-27T05:17:39.058Z,3.00
2023-04-27T05:20:07.287Z,3.40
2023-04-27T05:22:33.955Z,3.20
2023-04-27T05:25:00.781Z,3.20
2023-04-27T05:27:27.641Z,3.40
2023-04-27T05:29:54.280Z,3.50
2023-04-27T05:32:20.918Z,3.30
2023-04-27T05:34:49.483Z,3.40
2023-04-27T05:37:16.433Z,3.10
2023-04-27T05:39:43.083Z,3.40
2023-04-27T05:42:09.958Z,2.80
2023-04-27T05:44:36.674Z,3.50
2023-04-27T05:47:03.452Z,3.30
2023-04-27T05:49:30.472Z,3.70
2023-04-27T05:51:58.531Z,3.50
2023-04-27T05:54:26.955Z,3.10
2023-04-27T05:56:53.869Z,3.30
2023-04-27T05:59:21.421Z,3.20
2023-04-27T06:01:48.172Z,3.00
2023-04-27T06:04:15.309Z,3.30
2023-04-27T06:06:42.415Z,2.80
2023-04-27T06:09:09.141Z,3.00
2023-04-27T06:11:36.274Z,3.70
2023-04-27T06:14:03.059Z,3.40
2023-04-27T06:16:30.034Z,3.30
2023-04-27T06:18:56.992Z,2.90
2023-04-27T06:21:23.813Z,3.20
2023-04-27T06:23:50.781Z,3.00
2023-04-27T06:26:17.438Z,3.20
2023-04-27T06:28:44.263Z,3.20
2023-04-27T06:31:11.026Z,3.20
2023-04-27T06:33:38.225Z,2.90
2023-04-27T06:36:05.777Z,2.80
2023-04-27T06:38:32.438Z,3.10
2023-04-27T06:40:59.198Z,3.00
2023-04-27T06:43:26.198Z,3.00
2023-04-27T06:45:52.943Z,3.00
2023-04-27T06:48:19.745Z,2.60
2023-04-27T06:50:47.622Z,2.90
2023-04-27T06:53:16.333Z,2.70
2023-04-27T06:55:45.576Z,2.70
2023-04-27T06:58:16.493Z,2.60
2023-04-27T07:00:43.310Z,2.40
2023-04-27T07:03:10.372Z,2.60
2023-04-27T07:05:37.420Z,2.70
2023-04-27T07:08:07.242Z,2.80
2023-04-27T07:10:35.795Z,2.60
2023-04-27T07:13:02.649Z,2.40
2023-04-27T07:15:31.002Z,2.30
2023-04-27T07:17:57.698Z,2.30
2023-04-27T07:20:24.803Z,2.30
2023-04-27T07:22:51.508Z,2.20
2023-04-27T07:25:19.170Z,2.40
2023-04-27T07:27:46.404Z,2.50
2023-04-27T07:30:13.907Z,2.40
2023-04-27T07:32:41.382Z,2.60
2023-04-27T07:35:09.221Z,2.30
2023-04-27T07:37:39.844Z,2.70
2023-04-27T07:40:13.899Z,2.30
2023-04-27T07:42:41.596Z,2.40
2023-04-27T07:45:09.170Z,2.60
2023-04-27T07:47:36.647Z,2.50
2023-04-27T07:50:04.166Z,2.20
2023-04-27T07:52:30.948Z,2.10
2023-04-27T07:54:57.733Z,2.00
2023-04-27T07:57:24.716Z,1.90
2023-04-27T07:59:51.461Z,1.70
2023-04-27T08:02:20.017Z,1.50
2023-04-27T08:04:49.449Z,1.80
2023-04-27T08:07:17.496Z,1.40
2023-04-27T08:09:44.574Z,1.60
2023-04-27T08:12:11.410Z,1.80
2023-04-27T08:14:38.103Z,1.70
2023-04-27T08:17:05.025Z,1.80
2023-04-27T08:19:31.872Z,1.70
2023-04-27T08:21:58.551Z,1.40
2023-04-27T08:24:25.429Z,1.40
2023-04-27T08:26:52.243Z,1.70
2023-04-27T08:29:27.790Z,1.50
2023-04-27T08:31:59.334Z,1.60
2023-04-27T08:34:27.219Z,1.30
2023-04-27T08:36:54.371Z,1.60
2023-04-27T08:39:21.158Z,1.70
2023-04-27T08:41:47.892Z,1.40
2023-04-27T08:44:14.776Z,1.60
2023-04-27T08:46:41.940Z,1.40
2023-04-27T08:49:09.341Z,1.40
2023-04-27T08:51:36.181Z,1.80
2023-04-27T08:54:03.047Z,1.70
2023-04-27T08:56:30.804Z,1.40
2023-04-27T08:59:01.118Z,1.70
2023-04-27T09:01:28.126Z,2.00
2023-04-27T09:04:00.241Z,1.50
2023-04-27T09:06:32.201Z,1.50
2023-04-27T09:09:00.323Z,1.70
2023-04-27T09:11:33.361Z,1.90
2023-04-27T09:14:02.778Z,1.40
2023-04-27T09:16:30.906Z,1.90
2023-04-27T09:18:59.334Z,1.80
2023-04-27T09:21:33.286Z,1.40
2023-04-27T09:24:10.630Z,1.90
2023-04-27T09:26:37.413Z,1.80
2023-04-27T09:29:04.277Z,2.00
2023-04-27T09:31:32.504Z,1.60
2023-04-27T09:33:59.744Z,1.30
2023-04-27T09:36:26.820Z,1.40
2023-04-27T09:38:53.579Z,1.30
2023-04-27T09:41:21.343Z,1.50
2023-04-27T09:43:48.297Z,1.30
2023-04-27T09:46:15.528Z,1.40
2023-04-27T09:48:42.696Z,1.30
2023-04-27T09:51:09.454Z,1.00
2023-04-27T09:53:56.282Z,1.60
2023-04-27T09:56:50.966Z,1.30
2023-04-27T09:59:26.790Z,1.40
2023-04-27T10:02:00.075Z,1.40
2023-04-27T10:04:49.478Z,1.60
2023-04-27T10:07:17.174Z,1.40
2023-04-27T10:09:49.285Z,1.60
2023-04-27T10:12:35.691Z,1.60
2023-04-27T10:15:17.185Z,1.60
2023-04-27T10:17:50.253Z,1.30
2023-04-27T10:20:17.161Z,1.50
2023-04-27T10:22:51.973Z,1.40
2023-04-27T10:25:21.520Z,1.50
2023-04-27T10:27:51.342Z,1.60
2023-04-27T10:30:19.955Z,2.50
2023-04-27T10:32:57.971Z,1.50
2023-04-27T10:35:36.783Z,1.80
2023-04-27T10:38:18.478Z,1.70
2023-04-27T10:40:57.336Z,1.90
2023-04-27T10:43:29.240Z,1.50
2023-04-27T10:46:11.316Z,2.00
2023-04-27T10:48:42.890Z,1.40
2023-04-27T10:51:10.315Z,1.50
2023-04-27T10:53:37.414Z,1.60
2023-04-27T10:56:07.582Z,1.80
2023-04-27T10:58:48.293Z,2.00
2023-04-27T11:01:26.273Z,1.60
2023-04-27T11:04:00.782Z,1.40
2023-04-27T11:06:29.843Z,1.30
2023-04-27T11:08:56.534Z,1.60
2023-04-27T11:11:23.822Z,1.90
2023-04-27T11:13:55.171Z,2.00
2023-04-27T11:16:22.597Z,1.80
2023-04-27T11:18:49.689Z,1.60
2023-04-27T11:21:19.980Z,1.80
2023-04-27T11:23:47.288Z,2.10
2023-04-27T11:26:22.076Z,1.70
2023-04-27T11:29:06.060Z,1.80
2023-04-27T11:31:48.460Z,1.80
2023-04-27T11:34:16.757Z,1.80
2023-04-27T11:36:44.040Z,1.80
2023-04-27T11:39:22.279Z,1.70
2023-04-27T11:41:49.104Z,1.70
2023-04-27T11:44:15.841Z,1.50
2023-04-27T11:46:46.935Z,1.70
2023-04-27T11:49:14.868Z,1.60
2023-04-27T11:51:44.394Z,2.00
2023-04-27T11:54:12.216Z,1.70
2023-04-27T11:56:42.140Z,2.00
2023-04-27T11:59:27.070Z,1.80
2023-04-27T12:01:54.179Z,1.90
2023-04-27T12:04:21.164Z,1.90
2023-04-27T12:06:48.334Z,1.80
2023-04-27T12:09:16.867Z,2.00
2023-04-27T12:11:44.087Z,1.60
2023-04-27T12:14:10.805Z,1.60
2023-04-27T12:16:37.829Z,1.80
2023-04-27T12:19:04.831Z,1.30
2023-04-27T12:21:31.705Z,1.60
2023-04-27T12:23:58.578Z,1.20
2023-04-27T12:26:25.970Z,1.50
2023-04-27T12:28:53.214Z,1.70
2023-04-27T12:31:26.055Z,1.60
2023-04-27T12:33:54.396Z,1.80
2023-04-27T12:36:21.201Z,2.00
2023-04-27T12:38:47.873Z,1.70
2023-04-27T12:41:14.550Z,2.20
2023-04-27T12:43:43.356Z,2.10
2023-04-27T12:46:11.024Z,1.80
2023-04-27T12:48:37.962Z,1.50
2023-04-27T12:51:06.282Z,1.70
2023-04-27T12:53:32.960Z,1.70
2023-04-27T12:56:01.413Z,1.70
2023-04-27T12:58:28.249Z,2.00
2023-04-27T13:00:57.241Z,2.30
2023-04-27T13:03:24.553Z,1.80
2023-04-27T13:05:51.592Z,1.70
2023-04-27T13:08:18.408Z,1.60
2023-04-27T13:10:45.133Z,1.90
2023-04-27T13:13:11.978Z,2.10
2023-04-27T13:15:38.810Z,1.80
2023-04-27T13:18:06.045Z,1.60
2023-04-27T13:20:32.939Z,1.80
2023-04-27T13:22:59.654Z,1.70
2023-04-27T13:25:26.543Z,1.80
2023-04-27T13:28:41.761Z,1.30
2023-04-27T13:31:09.388Z,1.50
2023-04-27T13:33:43.923Z,1.40
2023-04-27T13:36:12.232Z,1.60
2023-04-27T13:38:39.310Z,2.10
2023-04-27T13:41:06.327Z,1.70
2023-04-27T13:43:33.168Z,2.00
2023-04-27T13:46:01.382Z,1.90
2023-04-27T13:48:29.855Z,1.90
2023-04-27T13:50:57.350Z,2.00
2023-04-27T13:53:25.170Z,1.70
2023-04-27T13:55:53.511Z,1.90
2023-04-27T13:58:20.487Z,2.10
2023-04-27T14:00:47.897Z,1.90
2023-04-27T14:03:18.150Z,2.00
2023-04-27T14:05:47.675Z,2.10
2023-04-27T14:08:14.388Z,2.20
2023-04-27T14:10:41.168Z,2.20
2023-04-27T14:13:08.060Z,3.70
2023-04-27T14:15:37.465Z,2.80
2023-04-27T14:18:05.661Z,2.90
2023-04-27T14:20:34.092Z,3.00
2023-04-27T14:23:01.531Z,2.00
2023-04-27T14:25:32.298Z,2.10
2023-04-27T14:28:03.667Z,1.90
2023-04-27T14:30:34.392Z,2.10
2023-04-27T14:33:01.613Z,2.90
2023-04-27T14:35:28.436Z,2.50
2023-04-27T14:37:56.479Z,3.70
2023-04-27T14:40:23.309Z,2.80
2023-04-27T14:42:50.108Z,3.30
2023-04-27T14:45:18.269Z,2.30
2023-04-27T14:47:45.102Z,2.30
2023-04-27T14:50:12.455Z,1.70
2023-04-27T14:52:39.308Z,2.30
2023-04-27T14:55:06.738Z,1.70
2023-04-27T14:57:33.729Z,1.80
2023-04-27T15:00:00.623Z,1.50
2023-04-27T15:02:27.579Z,1.70
2023-04-27T15:04:54.524Z,1.70
2023-04-27T15:07:21.469Z,1.90
2023-04-27T15:09:48.315Z,1.80
2023-04-27T15:12:15.123Z,1.70
2023-04-27T15:14:41.824Z,1.80
2023-04-27T15:17:08.638Z,1.50
2023-04-27T15:19:35.569Z,2.00
2023-04-27T15:22:02.263Z,2.00
2023-04-27T15:24:29.206Z,1.70
2023-04-27T15:26:55.896Z,2.20
2023-04-27T15:29:23.134Z,4.00
2023-04-27T15:31:50.440Z,27.40
2023-04-27T15:34:17.273Z,14.30
2023-04-27T15:36:43.969Z,17.20
2023-04-27T15:39:10.823Z,24.30
2023-04-27T15:41:37.590Z,10.20
2023-04-27T15:44:05.036Z,9.20
2023-04-27T15:46:32.355Z,11.90
2023-04-27T15:48:59.111Z,5.50
2023-04-27T15:51:26.227Z,3.20
2023-04-27T15:53:53.050Z,3.80
2023-04-27T15:56:19.754Z,6.60
2023-04-27T15:58:46.404Z,5.20
2023-04-27T16:01:13.251Z,5.30
2023-04-27T16:03:40.412Z,8.70
2023-04-27T16:06:07.544Z,4.60
2023-04-27T16:08:34.509Z,2.50
2023-04-27T16:11:01.422Z,5.30
2023-04-27T16:13:28.515Z,6.00
2023-04-27T16:15:55.546Z,6.10
2023-04-27T16:18:22.606Z,4.70
2023-04-27T16:20:49.349Z,10.00
2023-04-27T16:23:16.706Z,10.40
2023-04-27T16:25:43.443Z,6.20
2023-04-27T16:28:10.232Z,6.10
2023-04-27T16:30:38.175Z,2.90
2023-04-27T16:33:05.177Z,3.30
2023-04-27T16:35:33.509Z,4.60
2023-04-27T16:38:01.130Z,3.00
2023-04-27T16:40:27.910Z,2.40
2023-04-27T16:42:54.569Z,1.90
2023-04-27T16:45:21.288Z,2.20
2023-04-27T16:47:48.250Z,2.60
2023-04-27T16:50:15.254Z,1.90
2023-04-27T16:52:42.071Z,3.20
2023-04-27T16:55:09.072Z,2.30
2023-04-27T16:57:36.466Z,2.30
2023-04-27T17:00:05.844Z,2.30
2023-04-27T17:02:32.851Z,2.30
2023-04-27T17:05:00.992Z,2.40
2023-04-27T17:07:31.931Z,2.10
2023-04-27T17:09:59.062Z,1.90
2023-04-27T17:12:25.795Z,1.90
2023-04-27T17:14:52.493Z,1.50
2023-04-27T17:17:19.367Z,1.70
2023-04-27T17:19:46.297Z,1.90
2023-04-27T17:22:15.016Z,1.60
2023-04-27T17:24:41.925Z,1.70
2023-04-27T17:27:08.946Z,1.60
2023-04-27T17:29:36.800Z,1.70
2023-04-27T17:32:04.714Z,1.20
2023-04-27T17:34:31.639Z,1.80
2023-04-27T17:36:58.732Z,2.60
2023-04-27T17:39:25.754Z,1.50
2023-04-27T17:43:41.157Z,1.60
2023-04-27T17:46:09.134Z,1.30
2023-04-27T17:48:36.885Z,1.50
2023-04-27T17:51:32.801Z,1.90
2023-04-27T17:54:11.017Z,1.90
2023-04-27T17:56:42.465Z,1.90
2023-04-27T20:29:20.637Z,13.10
2023-04-27T20:31:53.894Z,9.50
2023-04-27T20:34:20.660Z,11.70
2023-04-27T20:36:53.040Z,14.30
2023-04-27T20:43:07.297Z,11.70
2023-04-27T20:46:01.506Z,12.10
2023-04-27T20:49:47.211Z,12.20
2023-04-27T20:52:14.386Z,10.20
2023-04-27T20:54:41.800Z,9.50
2023-04-27T20:57:13.176Z,8.40
2023-04-27T20:59:44.892Z,9.10
2023-04-27T21:02:11.927Z,7.70
2023-04-27T21:04:39.531Z,8.70
2023-04-27T21:07:06.469Z,9.90
2023-04-27T21:10:13.607Z,9.50
2023-04-27T21:12:43.781Z,7.10
2023-04-27T21:15:11.705Z,7.10
2023-04-27T21:17:50.235Z,7.20
2023-04-27T21:20:22.844Z,8.20
2023-04-27T21:22:52.260Z,8.80
2023-04-27T21:25:19.255Z,9.70
2023-04-27T21:27:46.621Z,9.70
2023-04-27T21:30:13.932Z,8.90
2023-04-27T21:32:40.988Z,7.20
2023-04-27T21:35:12.302Z,5.70
2023-04-27T21:37:40.312Z,5.40
2023-04-27T21:40:08.065Z,6.30
2023-04-27T21:42:35.761Z,9.50
2023-04-27T21:45:03.852Z,9.60
2023-04-27T21:47:31.213Z,8.70
2023-04-27T21:55:14.151Z,9.60
2023-04-27T21:58:51.338Z,7.30
2023-04-27T22:01:00.646Z,6.70
2023-04-27T22:03:28.606Z,7.10
2023-04-27T22:05:58.446Z,6.60
2023-04-27T22:08:25.794Z,6.10
2023-04-27T22:10:53.984Z,5.60
2023-04-27T22:13:22.702Z,5.70
2023-04-27T22:16:20.414Z,5.20
2023-04-27T22:18:54.310Z,4.70
2023-04-27T22:21:24.040Z,4.90
2023-04-27T22:23:50.891Z,4.10
2023-04-27T22:26:20.704Z,4.80
2023-04-27T22:28:47.905Z,4.40
2023-04-27T22:31:14.633Z,5.30
2023-04-27T22:33:41.362Z,5.30
2023-04-27T22:36:08.431Z,22.30
2023-04-27T22:38:35.791Z,26.20
2023-04-27T22:41:02.553Z,23.00
2023-04-27T22:43:29.554Z,15.40
2023-04-27T22:45:56.600Z,11.10
2023-04-27T22:48:51.892Z,7.40
2023-04-27T22:51:28.368Z,5.90
2023-04-27T22:58:41.516Z,7.40
2023-04-27T23:01:17.682Z,7.50
2023-04-27T23:03:45.800Z,6.30
2023-04-27T23:06:16.071Z,7.00
2023-04-27T23:08:45.379Z,6.70
2023-04-27T23:11:14.797Z,6.80
2023-04-27T23:13:41.555Z,8.20
2023-04-27T23:16:09.328Z,8.30
2023-04-27T23:18:38.791Z,9.20
2023-04-27T23:21:14.589Z,7.80
2023-04-27T23:23:41.494Z,9.00
2023-04-27T23:26:15.813Z,8.20
2023-04-27T23:28:46.074Z,9.10
2023-04-27T23:31:13.739Z,9.40
2023-04-27T23:33:40.907Z,10.50
2023-04-27T23:36:07.961Z,11.70
2023-04-27T23:38:34.696Z,10.70
2023-04-27T23:41:01.435Z,12.60
2023-04-27T23:43:28.242Z,13.80
2023-04-27T23:45:55.378Z,14.20
2023-04-27T23:48:22.198Z,11.80
2023-04-27T23:50:48.856Z,7.60
2023-04-27T23:53:15.556Z,6.50
2023-04-27T23:55:42.231Z,5.40
2023-04-27T23:58:08.978Z,4.60
